sensor_id;sensor_type;location;lat;lon;timestamp;P1;durP1;ratioP1;P2;durP2;ratioP2
20699;SDS011;10511;51.232;9.420;2023-03-07T00:00:59;1.40;;;1.40;;
20699;SDS011;10511;51.232;9.420;2023-03-07T00:03:26;1.30;;;1.30;;
20699;SDS011;10511;51.232;9.420;2023-03-07T00:05:59;1.30;;;1.30;;
20699;SDS011;10511;51.232;9.420;2023-03-07T00:08:26;1.30;;;1.30;;
20699;SDS011;10511;51.232;9.420;2023-03-07T00:10:54;1.20;;;1.20;;
20699;SDS011;10511;51.232;9.420;2023-03-07T00:13:21;1.30;;;1.30;;
20699;SDS011;10511;51.232;9.420;2023-03-07T00:15:49;1.30;;;1.30;;
20699;SDS011;10511;51.232;9.420;2023-03-07T00:18:16;1.37;;;1.37;;
20699;SDS011;10511;51.232;9.420;2023-03-07T00:20:43;1.20;;;1.20;;
20699;SDS011;10511;51.232;9.420;2023-03-07T00:23:10;1.20;;;1.20;;
20699;SDS011;10511;51.232;9.420;2023-03-07T00:25:37;1.20;;;1.20;;
20699;SDS011;10511;51.232;9.420;2023-03-07T00:28:05;1.40;;;1.40;;
20699;SDS011;10511;51.232;9.420;2023-03-07T00:30:32;1.20;;;1.20;;
20699;SDS011;10511;51.232;9.420;2023-03-07T00:32:58;1.30;;;1.30;;
20699;SDS011;10511;51.232;9.420;2023-03-07T00:35:25;1.40;;;1.40;;
20699;SDS011;10511;51.232;9.420;2023-03-07T00:37:52;1.30;;;1.30;;
20699;SDS011;10511;51.232;9.420;2023-03-07T00:40:19;1.30;;;1.30;;
20699;SDS011;10511;51.232;9.420;2023-03-07T00:42:46;1.30;;;1.30;;
20699;SDS011;10511;51.232;9.420;2023-03-07T00:45:14;1.33;;;1.33;;
20699;SDS011;10511;51.232;9.420;2023-03-07T00:47:41;1.40;;;1.40;;
20699;SDS011;10511;51.232;9.420;2023-03-07T00:50:08;1.30;;;1.30;;
20699;SDS011;10511;51.232;9.420;2023-03-07T00:52:36;1.50;;;1.50;;
20699;SDS011;10511;51.232;9.420;2023-03-07T00:55:03;1.40;;;1.40;;
20699;SDS011;10511;51.232;9.420;2023-03-07T00:57:30;1.30;;;1.30;;
20699;SDS011;10511;51.232;9.420;2023-03-07T00:59:57;1.30;;;1.30;;
20699;SDS011;10511;51.232;9.420;2023-03-07T01:02:25;1.40;;;1.40;;
20699;SDS011;10511;51.232;9.420;2023-03-07T01:04:52;1.50;;;1.50;;
20699;SDS011;10511;51.232;9.420;2023-03-07T01:07:19;1.50;;;1.50;;
20699;SDS011;10511;51.232;9.420;2023-03-07T01:09:48;1.43;;;1.43;;
20699;SDS011;10511;51.232;9.420;2023-03-07T01:12:17;1.60;;;1.60;;
20699;SDS011;10511;51.232;9.420;2023-03-07T01:14:44;1.40;;;1.40;;
20699;SDS011;10511;51.232;9.420;2023-03-07T01:17:10;1.40;;;1.40;;
20699;SDS011;10511;51.232;9.420;2023-03-07T01:19:39;1.40;;;1.40;;
20699;SDS011;10511;51.232;9.420;2023-03-07T01:22:05;1.47;;;1.47;;
20699;SDS011;10511;51.232;9.420;2023-03-07T01:24:32;1.50;;;1.50;;
20699;SDS011;10511;51.232;9.420;2023-03-07T01:26:59;1.40;;;1.40;;
20699;SDS011;10511;51.232;9.420;2023-03-07T01:29:26;1.57;;;1.57;;
20699;SDS011;10511;51.232;9.420;2023-03-07T01:31:53;1.50;;;1.50;;
20699;SDS011;10511;51.232;9.420;2023-03-07T01:34:20;1.50;;;1.50;;
20699;SDS011;10511;51.232;9.420;2023-03-07T01:36:48;1.50;;;1.50;;
20699;SDS011;10511;51.232;9.420;2023-03-07T01:39:15;1.50;;;1.50;;
20699;SDS011;10511;51.232;9.420;2023-03-07T01:41:43;1.30;;;1.30;;
20699;SDS011;10511;51.232;9.420;2023-03-07T01:44:13;1.50;;;1.50;;
20699;SDS011;10511;51.232;9.420;2023-03-07T01:46:43;1.53;;;1.53;;
20699;SDS011;10511;51.232;9.420;2023-03-07T01:49:18;1.43;;;1.43;;
20699;SDS011;10511;51.232;9.420;2023-03-07T01:51:51;1.37;;;1.37;;
20699;SDS011;10511;51.232;9.420;2023-03-07T01:54:23;1.40;;;1.40;;
20699;SDS011;10511;51.232;9.420;2023-03-07T01:56:51;1.50;;;1.50;;
20699;SDS011;10511;51.232;9.420;2023-03-07T01:59:20;1.40;;;1.40;;
20699;SDS011;10511;51.232;9.420;2023-03-07T02:01:53;1.40;;;1.40;;
20699;SDS011;10511;51.232;9.420;2023-03-07T02:04:23;1.40;;;1.40;;
20699;SDS011;10511;51.232;9.420;2023-03-07T02:06:56;1.40;;;1.40;;
20699;SDS011;10511;51.232;9.420;2023-03-07T02:09:25;1.40;;;1.40;;
20699;SDS011;10511;51.232;9.420;2023-03-07T02:11:52;1.50;;;1.50;;
20699;SDS011;10511;51.232;9.420;2023-03-07T02:14:21;1.50;;;1.50;;
20699;SDS011;10511;51.232;9.420;2023-03-07T02:16:48;1.40;;;1.40;;
20699;SDS011;10511;51.232;9.420;2023-03-07T02:19:20;1.30;;;1.30;;
20699;SDS011;10511;51.232;9.420;2023-03-07T02:21:54;1.37;;;1.37;;
20699;SDS011;10511;51.232;9.420;2023-03-07T02:24:30;1.30;;;1.30;;
20699;SDS011;10511;51.232;9.420;2023-03-07T02:27:04;1.37;;;1.37;;
20699;SDS011;10511;51.232;9.420;2023-03-07T02:29:31;1.50;;;1.50;;
20699;SDS011;10511;51.232;9.420;2023-03-07T02:31:58;1.40;;;1.40;;
20699;SDS011;10511;51.232;9.420;2023-03-07T02:34:26;1.40;;;1.40;;
20699;SDS011;10511;51.232;9.420;2023-03-07T02:36:55;1.37;;;1.37;;
20699;SDS011;10511;51.232;9.420;2023-03-07T02:39:26;1.47;;;1.47;;
20699;SDS011;10511;51.232;9.420;2023-03-07T02:41:54;1.37;;;1.37;;
20699;SDS011;10511;51.232;9.420;2023-03-07T02:44:24;1.43;;;1.43;;
20699;SDS011;10511;51.232;9.420;2023-03-07T02:46:51;1.50;;;1.50;;
20699;SDS011;10511;51.232;9.420;2023-03-07T02:49:18;1.50;;;1.50;;
20699;SDS011;10511;51.232;9.420;2023-03-07T02:51:45;1.40;;;1.40;;
20699;SDS011;10511;51.232;9.420;2023-03-07T02:54:12;1.43;;;1.43;;
20699;SDS011;10511;51.232;9.420;2023-03-07T02:56:39;1.40;;;1.40;;
20699;SDS011;10511;51.232;9.420;2023-03-07T02:59:06;1.40;;;1.40;;
20699;SDS011;10511;51.232;9.420;2023-03-07T03:01:34;1.40;;;1.40;;
20699;SDS011;10511;51.232;9.420;2023-03-07T03:04:01;1.40;;;1.40;;
20699;SDS011;10511;51.232;9.420;2023-03-07T03:06:28;1.40;;;1.40;;
20699;SDS011;10511;51.232;9.420;2023-03-07T03:08:55;1.40;;;1.40;;
20699;SDS011;10511;51.232;9.420;2023-03-07T03:11:22;1.50;;;1.50;;
20699;SDS011;10511;51.232;9.420;2023-03-07T03:13:49;1.50;;;1.50;;
20699;SDS011;10511;51.232;9.420;2023-03-07T03:16:15;1.50;;;1.50;;
20699;SDS011;10511;51.232;9.420;2023-03-07T03:18:44;1.40;;;1.40;;
20699;SDS011;10511;51.232;9.420;2023-03-07T03:21:11;1.40;;;1.40;;
20699;SDS011;10511;51.232;9.420;2023-03-07T03:23:39;1.30;;;1.30;;
20699;SDS011;10511;51.232;9.420;2023-03-07T03:26:07;1.43;;;1.43;;
20699;SDS011;10511;51.232;9.420;2023-03-07T03:28:35;1.53;;;1.53;;
20699;SDS011;10511;51.232;9.420;2023-03-07T03:31:04;1.50;;;1.50;;
20699;SDS011;10511;51.232;9.420;2023-03-07T03:33:32;1.40;;;1.40;;
20699;SDS011;10511;51.232;9.420;2023-03-07T03:36:04;1.60;;;1.60;;
20699;SDS011;10511;51.232;9.420;2023-03-07T03:38:32;1.40;;;1.40;;
20699;SDS011;10511;51.232;9.420;2023-03-07T03:41:02;1.40;;;1.40;;
20699;SDS011;10511;51.232;9.420;2023-03-07T03:43:30;1.50;;;1.50;;
20699;SDS011;10511;51.232;9.420;2023-03-07T03:45:57;1.37;;;1.37;;
20699;SDS011;10511;51.232;9.420;2023-03-07T03:48:24;1.40;;;1.40;;
20699;SDS011;10511;51.232;9.420;2023-03-07T03:50:58;1.40;;;1.40;;
20699;SDS011;10511;51.232;9.420;2023-03-07T03:53:29;1.30;;;1.30;;
20699;SDS011;10511;51.232;9.420;2023-03-07T03:56:00;1.47;;;1.47;;
20699;SDS011;10511;51.232;9.420;2023-03-07T03:58:27;1.30;;;1.30;;
20699;SDS011;10511;51.232;9.420;2023-03-07T04:00:54;1.40;;;1.40;;
20699;SDS011;10511;51.232;9.420;2023-03-07T04:03:21;1.40;;;1.40;;
20699;SDS011;10511;51.232;9.420;2023-03-07T04:05:48;1.40;;;1.40;;
20699;SDS011;10511;51.232;9.420;2023-03-07T04:08:16;1.50;;;1.50;;
20699;SDS011;10511;51.232;9.420;2023-03-07T04:10:43;1.40;;;1.40;;
20699;SDS011;10511;51.232;9.420;2023-03-07T04:13:10;1.30;;;1.30;;
20699;SDS011;10511;51.232;9.420;2023-03-07T04:15:37;1.50;;;1.50;;
20699;SDS011;10511;51.232;9.420;2023-03-07T04:18:03;1.30;;;1.30;;
20699;SDS011;10511;51.232;9.420;2023-03-07T04:20:30;1.43;;;1.43;;
20699;SDS011;10511;51.232;9.420;2023-03-07T04:22:57;1.40;;;1.40;;
20699;SDS011;10511;51.232;9.420;2023-03-07T04:25:25;1.30;;;1.30;;
20699;SDS011;10511;51.232;9.420;2023-03-07T04:27:52;1.40;;;1.40;;
20699;SDS011;10511;51.232;9.420;2023-03-07T04:30:19;1.40;;;1.40;;
20699;SDS011;10511;51.232;9.420;2023-03-07T04:32:46;1.40;;;1.40;;
20699;SDS011;10511;51.232;9.420;2023-03-07T04:35:13;1.37;;;1.37;;
20699;SDS011;10511;51.232;9.420;2023-03-07T04:37:39;1.40;;;1.40;;
20699;SDS011;10511;51.232;9.420;2023-03-07T04:40:07;1.47;;;1.47;;
20699;SDS011;10511;51.232;9.420;2023-03-07T04:42:36;1.30;;;1.30;;
20699;SDS011;10511;51.232;9.420;2023-03-07T04:45:03;1.40;;;1.40;;
20699;SDS011;10511;51.232;9.420;2023-03-07T04:47:30;1.30;;;1.30;;
20699;SDS011;10511;51.232;9.420;2023-03-07T04:50:00;1.20;;;1.20;;
20699;SDS011;10511;51.232;9.420;2023-03-07T04:52:27;1.30;;;1.30;;
20699;SDS011;10511;51.232;9.420;2023-03-07T04:54:54;1.40;;;1.40;;
20699;SDS011;10511;51.232;9.420;2023-03-07T04:57:21;1.40;;;1.40;;
20699;SDS011;10511;51.232;9.420;2023-03-07T04:59:49;1.43;;;1.43;;
20699;SDS011;10511;51.232;9.420;2023-03-07T05:02:16;1.30;;;1.30;;
20699;SDS011;10511;51.232;9.420;2023-03-07T05:04:43;1.30;;;1.30;;
20699;SDS011;10511;51.232;9.420;2023-03-07T05:07:10;1.40;;;1.40;;
20699;SDS011;10511;51.232;9.420;2023-03-07T05:09:37;1.30;;;1.30;;
20699;SDS011;10511;51.232;9.420;2023-03-07T05:12:04;1.40;;;1.40;;
20699;SDS011;10511;51.232;9.420;2023-03-07T05:14:31;1.33;;;1.33;;
20699;SDS011;10511;51.232;9.420;2023-03-07T05:16:59;1.50;;;1.50;;
20699;SDS011;10511;51.232;9.420;2023-03-07T05:19:26;1.40;;;1.40;;
20699;SDS011;10511;51.232;9.420;2023-03-07T05:21:54;1.30;;;1.30;;
20699;SDS011;10511;51.232;9.420;2023-03-07T05:24:21;1.30;;;1.30;;
20699;SDS011;10511;51.232;9.420;2023-03-07T05:26:48;1.30;;;1.30;;
20699;SDS011;10511;51.232;9.420;2023-03-07T05:29:15;1.20;;;1.20;;
20699;SDS011;10511;51.232;9.420;2023-03-07T05:31:42;1.40;;;1.40;;
20699;SDS011;10511;51.232;9.420;2023-03-07T05:34:10;1.30;;;1.30;;
20699;SDS011;10511;51.232;9.420;2023-03-07T05:36:37;1.30;;;1.30;;
20699;SDS011;10511;51.232;9.420;2023-03-07T05:39:04;1.40;;;1.40;;
20699;SDS011;10511;51.232;9.420;2023-03-07T05:41:31;1.30;;;1.30;;
20699;SDS011;10511;51.232;9.420;2023-03-07T05:43:57;1.40;;;1.40;;
20699;SDS011;10511;51.232;9.420;2023-03-07T05:46:25;1.40;;;1.40;;
20699;SDS011;10511;51.232;9.420;2023-03-07T05:48:52;1.30;;;1.30;;
20699;SDS011;10511;51.232;9.420;2023-03-07T05:51:20;1.37;;;1.37;;
20699;SDS011;10511;51.232;9.420;2023-03-07T05:53:47;1.40;;;1.40;;
20699;SDS011;10511;51.232;9.420;2023-03-07T05:56:14;1.30;;;1.30;;
20699;SDS011;10511;51.232;9.420;2023-03-07T05:58:41;1.30;;;1.30;;
20699;SDS011;10511;51.232;9.420;2023-03-07T06:01:08;1.40;;;1.40;;
20699;SDS011;10511;51.232;9.420;2023-03-07T06:03:34;1.30;;;1.30;;
20699;SDS011;10511;51.232;9.420;2023-03-07T06:06:02;1.30;;;1.30;;
20699;SDS011;10511;51.232;9.420;2023-03-07T06:08:33;1.30;;;1.30;;
20699;SDS011;10511;51.232;9.420;2023-03-07T06:11:01;1.20;;;1.20;;
20699;SDS011;10511;51.232;9.420;2023-03-07T06:13:28;1.20;;;1.20;;
20699;SDS011;10511;51.232;9.420;2023-03-07T06:15:56;1.50;;;1.50;;
20699;SDS011;10511;51.232;9.420;2023-03-07T06:18:23;1.30;;;1.30;;
20699;SDS011;10511;51.232;9.420;2023-03-07T06:20:54;1.33;;;1.33;;
20699;SDS011;10511;51.232;9.420;2023-03-07T06:23:22;1.30;;;1.30;;
20699;SDS011;10511;51.232;9.420;2023-03-07T06:25:51;1.33;;;1.33;;
20699;SDS011;10511;51.232;9.420;2023-03-07T06:28:18;1.30;;;1.30;;
20699;SDS011;10511;51.232;9.420;2023-03-07T06:30:45;1.50;;;1.50;;
20699;SDS011;10511;51.232;9.420;2023-03-07T06:33:12;1.40;;;1.40;;
20699;SDS011;10511;51.232;9.420;2023-03-07T06:35:40;1.40;;;1.40;;
20699;SDS011;10511;51.232;9.420;2023-03-07T06:38:08;1.30;;;1.30;;
20699;SDS011;10511;51.232;9.420;2023-03-07T06:40:36;1.40;;;1.40;;
20699;SDS011;10511;51.232;9.420;2023-03-07T06:43:04;1.40;;;1.40;;
20699;SDS011;10511;51.232;9.420;2023-03-07T06:45:31;1.43;;;1.43;;
20699;SDS011;10511;51.232;9.420;2023-03-07T06:47:58;1.30;;;1.30;;
20699;SDS011;10511;51.232;9.420;2023-03-07T06:50:25;1.30;;;1.30;;
20699;SDS011;10511;51.232;9.420;2023-03-07T06:52:52;1.30;;;1.30;;
20699;SDS011;10511;51.232;9.420;2023-03-07T06:55:19;1.50;;;1.50;;
20699;SDS011;10511;51.232;9.420;2023-03-07T06:57:46;1.37;;;1.37;;
20699;SDS011;10511;51.232;9.420;2023-03-07T07:00:15;1.30;;;1.30;;
20699;SDS011;10511;51.232;9.420;2023-03-07T07:02:43;1.30;;;1.30;;
20699;SDS011;10511;51.232;9.420;2023-03-07T07:05:10;1.30;;;1.30;;
20699;SDS011;10511;51.232;9.420;2023-03-07T07:07:37;1.30;;;1.30;;
20699;SDS011;10511;51.232;9.420;2023-03-07T07:10:04;1.30;;;1.30;;
20699;SDS011;10511;51.232;9.420;2023-03-07T07:12:31;1.50;;;1.50;;
20699;SDS011;10511;51.232;9.420;2023-03-07T07:14:58;1.37;;;1.37;;
20699;SDS011;10511;51.232;9.420;2023-03-07T07:17:27;1.30;;;1.30;;
20699;SDS011;10511;51.232;9.420;2023-03-07T07:19:54;1.30;;;1.30;;
20699;SDS011;10511;51.232;9.420;2023-03-07T07:22:21;1.30;;;1.30;;
20699;SDS011;10511;51.232;9.420;2023-03-07T07:24:48;1.30;;;1.30;;
20699;SDS011;10511;51.232;9.420;2023-03-07T07:27:15;1.30;;;1.30;;
20699;SDS011;10511;51.232;9.420;2023-03-07T07:29:42;1.30;;;1.30;;
20699;SDS011;10511;51.232;9.420;2023-03-07T07:32:09;1.30;;;1.30;;
20699;SDS011;10511;51.232;9.420;2023-03-07T07:34:37;1.30;;;1.30;;
20699;SDS011;10511;51.232;9.420;2023-03-07T07:37:04;1.20;;;1.20;;
20699;SDS011;10511;51.232;9.420;2023-03-07T07:39:31;1.47;;;1.47;;
20699;SDS011;10511;51.232;9.420;2023-03-07T07:41:58;1.30;;;1.30;;
20699;SDS011;10511;51.232;9.420;2023-03-07T07:44:27;1.30;;;1.30;;
20699;SDS011;10511;51.232;9.420;2023-03-07T07:46:54;1.30;;;1.30;;
20699;SDS011;10511;51.232;9.420;2023-03-07T07:49:21;1.30;;;1.30;;
20699;SDS011;10511;51.232;9.420;2023-03-07T07:51:50;1.30;;;1.30;;
20699;SDS011;10511;51.232;9.420;2023-03-07T07:54:17;1.37;;;1.37;;
20699;SDS011;10511;51.232;9.420;2023-03-07T07:56:44;1.40;;;1.40;;
20699;SDS011;10511;51.232;9.420;2023-03-07T07:59:11;1.30;;;1.30;;
20699;SDS011;10511;51.232;9.420;2023-03-07T08:01:38;1.30;;;1.30;;
20699;SDS011;10511;51.232;9.420;2023-03-07T08:04:05;1.30;;;1.30;;
20699;SDS011;10511;51.232;9.420;2023-03-07T08:06:32;1.30;;;1.30;;
20699;SDS011;10511;51.232;9.420;2023-03-07T08:09:00;1.27;;;1.27;;
20699;SDS011;10511;51.232;9.420;2023-03-07T08:11:27;1.40;;;1.40;;
20699;SDS011;10511;51.232;9.420;2023-03-07T08:14:06;1.40;;;1.40;;
20699;SDS011;10511;51.232;9.420;2023-03-07T08:16:33;1.30;;;1.30;;
20699;SDS011;10511;51.232;9.420;2023-03-07T08:19:00;1.30;;;1.30;;
20699;SDS011;10511;51.232;9.420;2023-03-07T08:21:27;1.20;;;1.20;;
20699;SDS011;10511;51.232;9.420;2023-03-07T08:23:55;1.30;;;1.30;;
20699;SDS011;10511;51.232;9.420;2023-03-07T08:26:23;1.30;;;1.30;;
20699;SDS011;10511;51.232;9.420;2023-03-07T08:28:50;1.23;;;1.23;;
20699;SDS011;10511;51.232;9.420;2023-03-07T08:31:18;1.20;;;1.20;;
20699;SDS011;10511;51.232;9.420;2023-03-07T08:33:47;1.30;;;1.30;;
20699;SDS011;10511;51.232;9.420;2023-03-07T08:36:14;1.20;;;1.20;;
20699;SDS011;10511;51.232;9.420;2023-03-07T08:38:42;1.40;;;1.40;;
20699;SDS011;10511;51.232;9.420;2023-03-07T08:41:09;1.30;;;1.30;;
20699;SDS011;10511;51.232;9.420;2023-03-07T08:43:37;1.33;;;1.33;;
20699;SDS011;10511;51.232;9.420;2023-03-07T08:46:04;1.30;;;1.30;;
20699;SDS011;10511;51.232;9.420;2023-03-07T08:48:31;1.30;;;1.30;;
20699;SDS011;10511;51.232;9.420;2023-03-07T08:51:02;1.37;;;1.37;;
20699;SDS011;10511;51.232;9.420;2023-03-07T08:53:31;1.30;;;1.30;;
20699;SDS011;10511;51.232;9.420;2023-03-07T08:55:58;1.20;;;1.20;;
20699;SDS011;10511;51.232;9.420;2023-03-07T08:58:25;1.20;;;1.20;;
20699;SDS011;10511;51.232;9.420;2023-03-07T09:00:53;1.13;;;1.13;;
20699;SDS011;10511;51.232;9.420;2023-03-07T09:03:20;1.20;;;1.20;;
20699;SDS011;10511;51.232;9.420;2023-03-07T09:05:46;1.20;;;1.20;;
20699;SDS011;10511;51.232;9.420;2023-03-07T09:08:13;1.20;;;1.20;;
20699;SDS011;10511;51.232;9.420;2023-03-07T09:10:40;1.30;;;1.30;;
20699;SDS011;10511;51.232;9.420;2023-03-07T09:13:07;1.20;;;1.20;;
20699;SDS011;10511;51.232;9.420;2023-03-07T09:15:36;1.30;;;1.30;;
20699;SDS011;10511;51.232;9.420;2023-03-07T09:18:05;1.20;;;1.20;;
20699;SDS011;10511;51.232;9.420;2023-03-07T09:20:32;1.33;;;1.33;;
20699;SDS011;10511;51.232;9.420;2023-03-07T09:22:58;1.20;;;1.20;;
20699;SDS011;10511;51.232;9.420;2023-03-07T09:25:25;1.20;;;1.20;;
20699;SDS011;10511;51.232;9.420;2023-03-07T09:27:52;1.20;;;1.20;;
20699;SDS011;10511;51.232;9.420;2023-03-07T09:30:19;1.30;;;1.30;;
20699;SDS011;10511;51.232;9.420;2023-03-07T09:32:47;1.27;;;1.27;;
20699;SDS011;10511;51.232;9.420;2023-03-07T09:35:15;1.30;;;1.30;;
20699;SDS011;10511;51.232;9.420;2023-03-07T09:37:42;1.30;;;1.30;;
20699;SDS011;10511;51.232;9.420;2023-03-07T09:40:10;1.33;;;1.33;;
20699;SDS011;10511;51.232;9.420;2023-03-07T09:42:43;1.30;;;1.30;;
20699;SDS011;10511;51.232;9.420;2023-03-07T09:45:20;1.30;;;1.30;;
20699;SDS011;10511;51.232;9.420;2023-03-07T09:50:48;1.40;;;1.40;;
20699;SDS011;10511;51.232;9.420;2023-03-07T09:53:20;1.30;;;1.30;;
20699;SDS011;10511;51.232;9.420;2023-03-07T09:55:50;1.30;;;1.30;;
20699;SDS011;10511;51.232;9.420;2023-03-07T09:58:22;1.27;;;1.27;;
20699;SDS011;10511;51.232;9.420;2023-03-07T10:00:51;1.20;;;1.20;;
20699;SDS011;10511;51.232;9.420;2023-03-07T10:03:25;1.40;;;1.40;;
20699;SDS011;10511;51.232;9.420;2023-03-07T10:05:59;1.20;;;1.20;;
20699;SDS011;10511;51.232;9.420;2023-03-07T10:08:33;1.23;;;1.23;;
20699;SDS011;10511;51.232;9.420;2023-03-07T10:11:02;1.30;;;1.30;;
20699;SDS011;10511;51.232;9.420;2023-03-07T10:13:39;1.23;;;1.23;;
20699;SDS011;10511;51.232;9.420;2023-03-07T10:16:14;1.30;;;1.30;;
20699;SDS011;10511;51.232;9.420;2023-03-07T10:18:50;1.20;;;1.20;;
20699;SDS011;10511;51.232;9.420;2023-03-07T10:21:31;1.30;;;1.30;;
20699;SDS011;10511;51.232;9.420;2023-03-07T10:26:58;1.20;;;1.20;;
20699;SDS011;10511;51.232;9.420;2023-03-07T10:29:31;1.27;;;1.27;;
20699;SDS011;10511;51.232;9.420;2023-03-07T10:32:09;1.23;;;1.23;;
20699;SDS011;10511;51.232;9.420;2023-03-07T10:34:48;1.23;;;1.23;;
20699;SDS011;10511;51.232;9.420;2023-03-07T10:37:24;1.20;;;1.20;;
20699;SDS011;10511;51.232;9.420;2023-03-07T10:40:00;1.30;;;1.30;;
20699;SDS011;10511;51.232;9.420;2023-03-07T10:42:29;1.20;;;1.20;;
20699;SDS011;10511;51.232;9.420;2023-03-07T10:44:59;1.20;;;1.20;;
20699;SDS011;10511;51.232;9.420;2023-03-07T10:47:27;1.20;;;1.20;;
20699;SDS011;10511;51.232;9.420;2023-03-07T10:49:55;1.30;;;1.30;;
20699;SDS011;10511;51.232;9.420;2023-03-07T10:52:29;1.23;;;1.23;;
20699;SDS011;10511;51.232;9.420;2023-03-07T10:58:00;1.20;;;1.20;;
20699;SDS011;10511;51.232;9.420;2023-03-07T11:01:01;1.30;;;1.30;;
20699;SDS011;10511;51.232;9.420;2023-03-07T11:03:39;1.30;;;1.30;;
20699;SDS011;10511;51.232;9.420;2023-03-07T11:06:22;1.27;;;1.27;;
20699;SDS011;10511;51.232;9.420;2023-03-07T11:08:58;1.30;;;1.30;;
20699;SDS011;10511;51.232;9.420;2023-03-07T11:11:34;1.20;;;1.20;;
20699;SDS011;10511;51.232;9.420;2023-03-07T11:14:06;1.23;;;1.23;;
20699;SDS011;10511;51.232;9.420;2023-03-07T11:16:39;1.20;;;1.20;;
20699;SDS011;10511;51.232;9.420;2023-03-07T11:22:16;1.10;;;1.10;;
20699;SDS011;10511;51.232;9.420;2023-03-07T11:24:53;1.13;;;1.13;;
20699;SDS011;10511;51.232;9.420;2023-03-07T11:27:29;1.20;;;1.20;;
20699;SDS011;10511;51.232;9.420;2023-03-07T11:30:15;1.20;;;1.20;;
20699;SDS011;10511;51.232;9.420;2023-03-07T11:32:45;1.20;;;1.20;;
20699;SDS011;10511;51.232;9.420;2023-03-07T11:35:18;1.20;;;1.20;;
20699;SDS011;10511;51.232;9.420;2023-03-07T11:37:48;1.30;;;1.30;;
20699;SDS011;10511;51.232;9.420;2023-03-07T11:40:29;1.30;;;1.30;;
20699;SDS011;10511;51.232;9.420;2023-03-07T11:43:02;1.10;;;1.10;;
20699;SDS011;10511;51.232;9.420;2023-03-07T11:45:34;1.10;;;1.10;;
20699;SDS011;10511;51.232;9.420;2023-03-07T11:48:11;1.20;;;1.20;;
20699;SDS011;10511;51.232;9.420;2023-03-07T11:50:52;1.17;;;1.17;;
20699;SDS011;10511;51.232;9.420;2023-03-07T11:53:28;1.10;;;1.10;;
20699;SDS011;10511;51.232;9.420;2023-03-07T11:56:13;1.27;;;1.27;;
20699;SDS011;10511;51.232;9.420;2023-03-07T11:58:59;1.20;;;1.20;;
20699;SDS011;10511;51.232;9.420;2023-03-07T12:01:50;1.23;;;1.23;;
20699;SDS011;10511;51.232;9.420;2023-03-07T12:07:20;1.20;;;1.20;;
20699;SDS011;10511;51.232;9.420;2023-03-07T12:09:56;1.10;;;1.10;;
20699;SDS011;10511;51.232;9.420;2023-03-07T12:12:38;1.20;;;1.20;;
20699;SDS011;10511;51.232;9.420;2023-03-07T12:15:20;1.20;;;1.20;;
20699;SDS011;10511;51.232;9.420;2023-03-07T12:17:55;1.30;;;1.30;;
20699;SDS011;10511;51.232;9.420;2023-03-07T12:20:34;1.20;;;1.20;;
20699;SDS011;10511;51.232;9.420;2023-03-07T12:23:09;1.20;;;1.20;;
20699;SDS011;10511;51.232;9.420;2023-03-07T12:25:41;1.30;;;1.30;;
20699;SDS011;10511;51.232;9.420;2023-03-07T12:28:12;1.20;;;1.20;;
20699;SDS011;10511;51.232;9.420;2023-03-07T12:30:49;1.20;;;1.20;;
20699;SDS011;10511;51.232;9.420;2023-03-07T12:33:23;1.20;;;1.20;;
20699;SDS011;10511;51.232;9.420;2023-03-07T12:35:57;1.20;;;1.20;;
20699;SDS011;10511;51.232;9.420;2023-03-07T12:38:30;1.10;;;1.10;;
20699;SDS011;10511;51.232;9.420;2023-03-07T12:41:03;1.20;;;1.20;;
20699;SDS011;10511;51.232;9.420;2023-03-07T12:43:41;1.10;;;1.10;;
20699;SDS011;10511;51.232;9.420;2023-03-07T12:46:13;1.30;;;1.30;;
20699;SDS011;10511;51.232;9.420;2023-03-07T12:48:45;1.20;;;1.20;;
20699;SDS011;10511;51.232;9.420;2023-03-07T12:51:18;1.20;;;1.20;;
20699;SDS011;10511;51.232;9.420;2023-03-07T12:53:48;1.10;;;1.10;;
20699;SDS011;10511;51.232;9.420;2023-03-07T12:56:19;1.10;;;1.10;;
20699;SDS011;10511;51.232;9.420;2023-03-07T12:58:54;1.30;;;1.30;;
20699;SDS011;10511;51.232;9.420;2023-03-07T13:01:26;1.20;;;1.20;;
20699;SDS011;10511;51.232;9.420;2023-03-07T13:03:57;1.20;;;1.20;;
20699;SDS011;10511;51.232;9.420;2023-03-07T13:06:30;1.10;;;1.10;;
20699;SDS011;10511;51.232;9.420;2023-03-07T13:09:01;1.27;;;1.27;;
20699;SDS011;10511;51.232;9.420;2023-03-07T13:11:29;1.40;;;1.40;;
20699;SDS011;10511;51.232;9.420;2023-03-07T13:13:59;1.30;;;1.30;;
20699;SDS011;10511;51.232;9.420;2023-03-07T13:16:35;1.40;;;1.40;;
20699;SDS011;10511;51.232;9.420;2023-03-07T13:43:32;1.50;;;1.50;;
20699;SDS011;10511;51.232;9.420;2023-03-07T13:55:13;1.60;;;1.60;;
20699;SDS011;10511;51.232;9.420;2023-03-07T13:58:01;1.50;;;1.50;;
20699;SDS011;10511;51.232;9.420;2023-03-07T14:00:47;1.40;;;1.40;;
20699;SDS011;10511;51.232;9.420;2023-03-07T14:03:22;1.60;;;1.60;;
20699;SDS011;10511;51.232;9.420;2023-03-07T14:05:56;1.57;;;1.57;;
20699;SDS011;10511;51.232;9.420;2023-03-07T14:08:27;1.50;;;1.50;;
20699;SDS011;10511;51.232;9.420;2023-03-07T14:10:58;1.50;;;1.50;;
20699;SDS011;10511;51.232;9.420;2023-03-07T14:13:32;1.50;;;1.50;;
20699;SDS011;10511;51.232;9.420;2023-03-07T14:16:16;1.50;;;1.50;;
20699;SDS011;10511;51.232;9.420;2023-03-07T14:18:56;1.40;;;1.40;;
20699;SDS011;10511;51.232;9.420;2023-03-07T14:21:36;1.40;;;1.40;;
20699;SDS011;10511;51.232;9.420;2023-03-07T14:24:26;1.50;;;1.50;;
20699;SDS011;10511;51.232;9.420;2023-03-07T14:27:10;1.40;;;1.40;;
20699;SDS011;10511;51.232;9.420;2023-03-07T14:29:44;1.40;;;1.40;;
20699;SDS011;10511;51.232;9.420;2023-03-07T14:32:21;1.40;;;1.40;;
20699;SDS011;10511;51.232;9.420;2023-03-07T14:34:51;1.57;;;1.57;;
20699;SDS011;10511;51.232;9.420;2023-03-07T14:37:20;1.40;;;1.40;;
20699;SDS011;10511;51.232;9.420;2023-03-07T14:39:53;1.47;;;1.47;;
20699;SDS011;10511;51.232;9.420;2023-03-07T14:42:35;1.40;;;1.40;;
20699;SDS011;10511;51.232;9.420;2023-03-07T14:45:16;1.40;;;1.40;;
20699;SDS011;10511;51.232;9.420;2023-03-07T14:47:57;1.40;;;1.40;;
20699;SDS011;10511;51.232;9.420;2023-03-07T14:50:39;1.40;;;1.40;;
20699;SDS011;10511;51.232;9.420;2023-03-07T14:53:12;1.40;;;1.40;;
20699;SDS011;10511;51.232;9.420;2023-03-07T14:55:42;1.47;;;1.47;;
20699;SDS011;10511;51.232;9.420;2023-03-07T14:58:14;1.43;;;1.43;;
20699;SDS011;10511;51.232;9.420;2023-03-07T15:00:42;1.40;;;1.40;;
20699;SDS011;10511;51.232;9.420;2023-03-07T15:03:11;1.40;;;1.40;;
20699;SDS011;10511;51.232;9.420;2023-03-07T15:05:47;1.50;;;1.50;;
20699;SDS011;10511;51.232;9.420;2023-03-07T15:08:16;1.50;;;1.50;;
20699;SDS011;10511;51.232;9.420;2023-03-07T15:10:44;1.40;;;1.40;;
20699;SDS011;10511;51.232;9.420;2023-03-07T15:13:19;1.50;;;1.50;;
20699;SDS011;10511;51.232;9.420;2023-03-07T15:15:51;1.40;;;1.40;;
20699;SDS011;10511;51.232;9.420;2023-03-07T15:18:23;1.40;;;1.40;;
20699;SDS011;10511;51.232;9.420;2023-03-07T15:20:58;1.50;;;1.50;;
20699;SDS011;10511;51.232;9.420;2023-03-07T15:23:29;1.40;;;1.40;;
20699;SDS011;10511;51.232;9.420;2023-03-07T15:25:59;1.40;;;1.40;;
20699;SDS011;10511;51.232;9.420;2023-03-07T15:28:30;1.33;;;1.33;;
20699;SDS011;10511;51.232;9.420;2023-03-07T15:30:58;1.30;;;1.30;;
20699;SDS011;10511;51.232;9.420;2023-03-07T15:33:26;1.40;;;1.40;;
20699;SDS011;10511;51.232;9.420;2023-03-07T15:36:06;1.40;;;1.40;;
20699;SDS011;10511;51.232;9.420;2023-03-07T15:38:42;1.50;;;1.50;;
20699;SDS011;10511;51.232;9.420;2023-03-07T15:44:04;1.30;;;1.30;;
20699;SDS011;10511;51.232;9.420;2023-03-07T15:46:41;1.30;;;1.30;;
20699;SDS011;10511;51.232;9.420;2023-03-07T15:49:15;1.43;;;1.43;;
20699;SDS011;10511;51.232;9.420;2023-03-07T15:51:50;1.40;;;1.40;;
20699;SDS011;10511;51.232;9.420;2023-03-07T15:54:21;1.40;;;1.40;;
20699;SDS011;10511;51.232;9.420;2023-03-07T15:56:56;1.40;;;1.40;;